sensor_id;sensor_type;location;lat;lon;timestamp;pressure;altitude;pressure_sealevel;temperature;humidity
49627;BME280;35527;54.616;39.786;2022-12-24T00:00:40;99282.69;;;2.90;100.00
49627;BME280;35527;54.616;39.786;2022-12-24T00:03:47;99296.31;;;2.92;100.00
49627;BME280;35527;54.616;39.786;2022-12-24T00:06:52;99288.59;;;2.93;100.00
49627;BME280;35527;54.616;39.786;2022-12-24T00:09:57;99302.22;;;2.96;100.00
49627;BME280;35527;54.616;39.786;2022-12-24T00:13:02;99268.16;;;2.95;100.00
49627;BME280;35527;54.616;39.786;2022-12-24T00:16:32;99281.16;;;2.80;100.00
49627;BME280;35527;54.616;39.786;2022-12-24T00:19:36;99268.00;;;2.50;100.00
49627;BME280;35527;54.616;39.786;2022-12-24T00:22:39;99287.09;;;2.83;100.00
49627;BME280;35527;54.616;39.786;2022-12-24T00:25:43;99307.53;;;2.83;100.00
49627;BME280;35527;54.616;39.786;2022-12-24T00:28:48;99293.94;;;2.80;100.00
49627;BME280;35527;54.616;39.786;2022-12-24T00:31:55;99312.00;;;2.69;100.00
49627;BME280;35527;54.616;39.786;2022-12-24T00:34:58;99278.88;;;2.63;100.00
49627;BME280;35527;54.616;39.786;2022-12-24T00:38:03;99312.06;;;2.63;100.00
49627;BME280;35527;54.616;39.786;2022-12-24T00:41:31;99310.25;;;2.71;100.00
49627;BME280;35527;54.616;39.786;2022-12-24T00:44:35;99303.56;;;2.62;100.00
49627;BME280;35527;54.616;39.786;2022-12-24T00:47:37;99317.22;;;2.61;100.00
49627;BME280;35527;54.616;39.786;2022-12-24T00:50:41;99307.00;;;2.60;100.00
49627;BME280;35527;54.616;39.786;2022-12-24T00:53:48;99327.53;;;2.55;100.00
49627;BME280;35527;54.616;39.786;2022-12-24T00:56:52;99318.88;;;2.64;100.00
49627;BME280;35527;54.616;39.786;2022-12-24T00:59:55;99316.34;;;2.62;100.00
49627;BME280;35527;54.616;39.786;2022-12-24T01:02:59;99307.75;;;2.68;100.00
49627;BME280;35527;54.616;39.786;2022-12-24T01:06:02;99325.72;;;2.62;100.00
49627;BME280;35527;54.616;39.786;2022-12-24T01:09:08;99317.91;;;2.71;100.00
49627;BME280;35527;54.616;39.786;2022-12-24T01:12:11;99317.13;;;2.66;100.00
49627;BME280;35527;54.616;39.786;2022-12-24T01:15:37;99310.28;;;2.69;100.00
49627;BME280;35527;54.616;39.786;2022-12-24T01:18:40;99320.63;;;2.60;100.00
49627;BME280;35527;54.616;39.786;2022-12-24T01:22:09;99323.16;;;2.62;100.00
49627;BME280;35527;54.616;39.786;2022-12-24T01:25:13;99314.91;;;2.44;100.00
49627;BME280;35527;54.616;39.786;2022-12-24T01:28:19;99337.09;;;2.39;100.00
49627;BME280;35527;54.616;39.786;2022-12-24T01:31:22;99315.50;;;2.62;100.00
49627;BME280;35527;54.616;39.786;2022-12-24T01:34:26;99326.69;;;2.53;100.00
49627;BME280;35527;54.616;39.786;2022-12-24T01:37:30;99319.97;;;2.47;100.00
49627;BME280;35527;54.616;39.786;2022-12-24T01:40:33;99321.59;;;2.52;100.00
49627;BME280;35527;54.616;39.786;2022-12-24T01:44:28;99321.59;;;2.52;100.00
49627;BME280;35527;54.616;39.786;2022-12-24T01:47:37;99333.81;;;2.33;100.00
49627;BME280;35527;54.616;39.786;2022-12-24T01:50:41;99332.97;;;2.32;100.00
49627;BME280;35527;54.616;39.786;2022-12-24T01:53:47;99330.66;;;2.11;100.00
49627;BME280;35527;54.616;39.786;2022-12-24T01:57:01;99331.41;;;2.20;100.00
49627;BME280;35527;54.616;39.786;2022-12-24T02:00:08;99333.09;;;2.20;100.00
49627;BME280;35527;54.616;39.786;2022-12-24T02:03:13;99335.69;;;2.17;100.00
49627;BME280;35527;54.616;39.786;2022-12-24T02:06:18;99339.00;;;2.25;100.00
49627;BME280;35527;54.616;39.786;2022-12-24T02:09:21;99345.88;;;2.20;100.00
49627;BME280;35527;54.616;39.786;2022-12-24T02:12:54;99344.22;;;2.16;100.00
49627;BME280;35527;54.616;39.786;2022-12-24T02:23:15;99353.44;;;2.29;100.00
49627;BME280;35527;54.616;39.786;2022-12-24T02:36:22;99334.91;;;2.12;100.00
49627;BME280;35527;54.616;39.786;2022-12-24T02:39:47;99333.06;;;2.23;100.00
49627;BME280;35527;54.616;39.786;2022-12-24T02:42:57;99345.78;;;2.28;100.00
49627;BME280;35527;54.616;39.786;2022-12-24T02:46:06;99359.34;;;2.33;100.00
49627;BME280;35527;54.616;39.786;2022-12-24T02:49:10;99334.63;;;2.32;100.00
49627;BME280;35527;54.616;39.786;2022-12-24T02:52:38;99332.91;;;2.34;100.00
49627;BME280;35527;54.616;39.786;2022-12-24T03:05:48;99345.72;;;2.31;100.00
49627;BME280;35527;54.616;39.786;2022-12-24T03:12:08;99335.44;;;2.37;100.00
49627;BME280;35527;54.616;39.786;2022-12-24T03:15:16;99311.66;;;2.32;100.00
49627;BME280;35527;54.616;39.786;2022-12-24T03:18:23;99321.81;;;2.38;100.00
49627;BME280;35527;54.616;39.786;2022-12-24T03:21:34;99328.59;;;2.37;100.00
49627;BME280;35527;54.616;39.786;2022-12-24T03:24:38;99344.72;;;2.44;100.00
49627;BME280;35527;54.616;39.786;2022-12-24T03:27:45;99329.34;;;2.47;100.00
49627;BME280;35527;54.616;39.786;2022-12-24T03:30:49;99355.63;;;2.55;100.00
49627;BME280;35527;54.616;39.786;2022-12-24T03:34:18;99350.63;;;2.46;100.00
49627;BME280;35527;54.616;39.786;2022-12-24T03:37:24;99353.22;;;2.43;100.00
49627;BME280;35527;54.616;39.786;2022-12-24T03:40:29;99336.41;;;2.28;100.00
49627;BME280;35527;54.616;39.786;2022-12-24T03:43:32;99346.75;;;2.17;100.00
49627;BME280;35527;54.616;39.786;2022-12-24T03:46:35;99346.66;;;2.25;100.00
49627;BME280;35527;54.616;39.786;2022-12-24T03:50:06;99349.25;;;2.22;100.00
49627;BME280;35527;54.616;39.786;2022-12-24T03:53:12;99335.72;;;2.14;100.00
49627;BME280;35527;54.616;39.786;2022-12-24T03:56:15;99340.88;;;2.12;100.00
49627;BME280;35527;54.616;39.786;2022-12-24T03:59:18;99351.84;;;2.20;100.00
49627;BME280;35527;54.616;39.786;2022-12-24T04:02:21;99356.16;;;2.15;100.00
49627;BME280;35527;54.616;39.786;2022-12-24T04:06:11;99332.34;;;2.13;100.00
49627;BME280;35527;54.616;39.786;2022-12-24T04:09:14;99348.84;;;2.51;100.00
49627;BME280;35527;54.616;39.786;2022-12-24T04:12:18;99348.84;;;2.53;100.00
49627;BME280;35527;54.616;39.786;2022-12-24T04:15:21;99353.13;;;2.51;100.00
49627;BME280;35527;54.616;39.786;2022-12-24T04:18:27;99326.75;;;2.50;100.00
49627;BME280;35527;54.616;39.786;2022-12-24T04:21:55;99342.94;;;2.49;100.00
49627;BME280;35527;54.616;39.786;2022-12-24T04:24:59;99337.97;;;2.38;100.00
49627;BME280;35527;54.616;39.786;2022-12-24T04:28:02;99346.63;;;2.28;100.00
49627;BME280;35527;54.616;39.786;2022-12-24T04:31:10;99342.47;;;2.19;100.00
49627;BME280;35527;54.616;39.786;2022-12-24T04:34:13;99350.66;;;2.44;100.00
49627;BME280;35527;54.616;39.786;2022-12-24T04:37:16;99329.69;;;2.21;100.00
49627;BME280;35527;54.616;39.786;2022-12-24T04:40:20;99350.00;;;2.29;100.00
49627;BME280;35527;54.616;39.786;2022-12-24T04:43:27;99335.72;;;2.15;100.00
49627;BME280;35527;54.616;39.786;2022-12-24T04:46:31;99323.94;;;2.05;100.00
49627;BME280;35527;54.616;39.786;2022-12-24T04:49:34;99321.38;;;2.07;100.00
49627;BME280;35527;54.616;39.786;2022-12-24T04:52:39;99351.00;;;2.18;100.00
49627;BME280;35527;54.616;39.786;2022-12-24T04:56:15;99334.06;;;2.73;100.00
49627;BME280;35527;54.616;39.786;2022-12-24T04:59:21;99341.88;;;2.64;100.00
49627;BME280;35527;54.616;39.786;2022-12-24T05:02:24;99319.81;;;2.58;100.00
49627;BME280;35527;54.616;39.786;2022-12-24T05:05:28;99319.78;;;2.60;100.00
49627;BME280;35527;54.616;39.786;2022-12-24T05:08:37;99330.00;;;2.60;100.00
49627;BME280;35527;54.616;39.786;2022-12-24T05:11:40;99326.66;;;2.55;100.00
49627;BME280;35527;54.616;39.786;2022-12-24T05:14:43;99334.31;;;2.58;100.00
49627;BME280;35527;54.616;39.786;2022-12-24T05:17:47;99323.22;;;2.59;100.00
49627;BME280;35527;54.616;39.786;2022-12-24T05:20:53;99326.13;;;2.33;100.00
49627;BME280;35527;54.616;39.786;2022-12-24T05:23:56;99324.25;;;2.47;100.00
49627;BME280;35527;54.616;39.786;2022-12-24T05:27:18;99351.34;;;2.56;100.00
49627;BME280;35527;54.616;39.786;2022-12-24T05:30:20;99332.00;;;2.41;100.00
49627;BME280;35527;54.616;39.786;2022-12-24T05:33:26;99327.38;;;2.64;100.00
49627;BME280;35527;54.616;39.786;2022-12-24T05:36:32;99342.72;;;2.64;100.00
49627;BME280;35527;54.616;39.786;2022-12-24T05:39:36;99355.34;;;2.74;100.00
49627;BME280;35527;54.616;39.786;2022-12-24T05:42:40;99346.94;;;2.65;100.00
49627;BME280;35527;54.616;39.786;2022-12-24T05:45:44;99334.19;;;2.65;100.00
49627;BME280;35527;54.616;39.786;2022-12-24T05:48:48;99351.97;;;2.73;100.00
49627;BME280;35527;54.616;39.786;2022-12-24T05:51:51;99347.63;;;2.78;100.00
49627;BME280;35527;54.616;39.786;2022-12-24T05:54:54;99337.41;;;2.77;100.00
49627;BME280;35527;54.616;39.786;2022-12-24T05:58:00;99343.41;;;2.76;100.00
49627;BME280;35527;54.616;39.786;2022-12-24T06:01:03;99344.59;;;2.52;100.00
49627;BME280;35527;54.616;39.786;2022-12-24T06:04:11;99339.50;;;2.50;100.00
49627;BME280;35527;54.616;39.786;2022-12-24T06:07:18;99346.34;;;2.48;100.00
49627;BME280;35527;54.616;39.786;2022-12-24T06:10:53;99363.38;;;2.46;100.00
49627;BME280;35527;54.616;39.786;2022-12-24T06:13:57;99357.50;;;2.42;100.00
49627;BME280;35527;54.616;39.786;2022-12-24T06:16:59;99334.63;;;2.35;100.00
49627;BME280;35527;54.616;39.786;2022-12-24T06:20:03;99334.69;;;2.30;100.00
49627;BME280;35527;54.616;39.786;2022-12-24T06:23:09;99354.88;;;2.47;100.00
49627;BME280;35527;54.616;39.786;2022-12-24T06:26:17;99359.88;;;2.55;100.00
49627;BME280;35527;54.616;39.786;2022-12-24T06:29:21;99362.50;;;2.48;100.00
49627;BME280;35527;54.616;39.786;2022-12-24T06:32:24;99350.13;;;2.21;100.00
49627;BME280;35527;54.616;39.786;2022-12-24T06:35:31;99350.25;;;2.10;100.00
49627;BME280;35527;54.616;39.786;2022-12-24T06:38:35;99340.72;;;2.23;100.00
49627;BME280;35527;54.616;39.786;2022-12-24T06:41:38;99357.88;;;2.15;100.00
49627;BME280;35527;54.616;39.786;2022-12-24T06:44:42;99338.28;;;2.14;100.00
49627;BME280;35527;54.616;39.786;2022-12-24T06:47:45;99335.59;;;2.23;100.00
49627;BME280;35527;54.616;39.786;2022-12-24T06:50:49;99331.38;;;2.23;100.00
49627;BME280;35527;54.616;39.786;2022-12-24T06:53:52;99322.00;;;2.22;100.00
49627;BME280;35527;54.616;39.786;2022-12-24T06:56:57;99330.41;;;2.32;100.00
49627;BME280;35527;54.616;39.786;2022-12-24T07:00:01;99326.09;;;2.34;100.00
49627;BME280;35527;54.616;39.786;2022-12-24T07:03:05;99343.09;;;2.37;100.00
49627;BME280;35527;54.616;39.786;2022-12-24T07:06:34;99346.31;;;2.51;100.00
49627;BME280;35527;54.616;39.786;2022-12-24T07:09:41;99338.88;;;2.34;100.00
49627;BME280;35527;54.616;39.786;2022-12-24T07:12:46;99317.75;;;2.23;100.00
49627;BME280;35527;54.616;39.786;2022-12-24T07:15:58;99329.47;;;2.38;100.00
49627;BME280;35527;54.616;39.786;2022-12-24T07:19:03;99341.59;;;2.23;100.00
49627;BME280;35527;54.616;39.786;2022-12-24T07:22:06;99351.84;;;2.20;100.00
49627;BME280;35527;54.616;39.786;2022-12-24T07:25:17;99337.31;;;2.24;100.00
49627;BME280;35527;54.616;39.786;2022-12-24T07:28:21;99343.28;;;2.23;100.00
49627;BME280;35527;54.616;39.786;2022-12-24T07:31:28;99336.56;;;2.14;100.00
49627;BME280;35527;54.616;39.786;2022-12-24T07:34:31;99322.13;;;2.13;100.00
49627;BME280;35527;54.616;39.786;2022-12-24T07:37:37;99359.47;;;2.22;100.00
49627;BME280;35527;54.616;39.786;2022-12-24T07:40:40;99345.84;;;2.21;100.00
49627;BME280;35527;54.616;39.786;2022-12-24T07:43:43;99336.53;;;2.19;100.00
49627;BME280;35527;54.616;39.786;2022-12-24T07:46:48;99333.81;;;2.33;100.00
49627;BME280;35527;54.616;39.786;2022-12-24T07:49:53;99351.63;;;2.34;100.00
49627;BME280;35527;54.616;39.786;2022-12-24T07:52:56;99334.63;;;2.32;100.00
49627;BME280;35527;54.616;39.786;2022-12-24T07:55:58;99335.56;;;2.26;100.00
49627;BME280;35527;54.616;39.786;2022-12-24T07:59:12;99332.97;;;2.32;100.00
49627;BME280;35527;54.616;39.786;2022-12-24T08:02:18;99337.16;;;2.36;100.00
49627;BME280;35527;54.616;39.786;2022-12-24T08:05:25;99334.63;;;2.32;100.00
49627;BME280;35527;54.616;39.786;2022-12-24T08:08:29;99340.50;;;2.41;100.00
49627;BME280;35527;54.616;39.786;2022-12-24T08:11:33;99344.63;;;2.50;100.00
49627;BME280;35527;54.616;39.786;2022-12-24T08:14:45;99344.53;;;2.55;100.00
49627;BME280;35527;54.616;39.786;2022-12-24T08:17:47;99337.78;;;2.52;100.00
49627;BME280;35527;54.616;39.786;2022-12-24T08:20:50;99323.31;;;2.53;100.00
49627;BME280;35527;54.616;39.786;2022-12-24T08:23:54;99351.41;;;2.51;100.00
49627;BME280;35527;54.616;39.786;2022-12-24T08:26:58;99316.63;;;2.44;100.00
49627;BME280;35527;54.616;39.786;2022-12-24T08:30:05;99340.41;;;2.46;100.00
49627;BME280;35527;54.616;39.786;2022-12-24T08:33:10;99338.69;;;2.50;100.00
49627;BME280;35527;54.616;39.786;2022-12-24T08:36:13;99324.19;;;2.50;100.00
49627;BME280;35527;54.616;39.786;2022-12-24T08:39:18;99314.88;;;2.47;100.00
49627;BME280;35527;54.616;39.786;2022-12-24T08:42:24;99321.66;;;2.48;100.00
49627;BME280;35527;54.616;39.786;2022-12-24T08:45:28;99319.78;;;2.60;100.00
49627;BME280;35527;54.616;39.786;2022-12-24T08:48:35;99308.78;;;2.58;100.00
49627;BME280;35527;54.616;39.786;2022-12-24T08:51:41;99315.50;;;2.60;100.00
49627;BME280;35527;54.616;39.786;2022-12-24T08:54:46;99313.94;;;2.53;100.00
49627;BME280;35527;54.616;39.786;2022-12-24T08:57:50;99321.66;;;2.48;100.00
49627;BME280;35527;54.616;39.786;2022-12-24T09:00:54;99298.81;;;2.39;100.00
49627;BME280;35527;54.616;39.786;2022-12-24T09:04:05;99299.63;;;2.41;100.00
49627;BME280;35527;54.616;39.786;2022-12-24T09:07:08;99316.75;;;2.33;100.00
49627;BME280;35527;54.616;39.786;2022-12-24T09:10:11;99303.91;;;2.39;100.00
49627;BME280;35527;54.616;39.786;2022-12-24T09:13:14;99312.41;;;2.40;100.00
49627;BME280;35527;54.616;39.786;2022-12-24T09:16:19;99286.88;;;2.40;100.00
49627;BME280;35527;54.616;39.786;2022-12-24T09:19:23;99317.41;;;2.47;100.00
49627;BME280;35527;54.616;39.786;2022-12-24T09:22:26;99293.69;;;2.39;100.00
49627;BME280;35527;54.616;39.786;2022-12-24T09:25:30;99283.53;;;2.36;100.00
49627;BME280;35527;54.616;39.786;2022-12-24T09:28:35;99296.28;;;2.38;100.00
49627;BME280;35527;54.616;39.786;2022-12-24T09:31:41;99292.00;;;2.38;100.00
49627;BME280;35527;54.616;39.786;2022-12-24T09:34:43;99298.84;;;2.36;100.00
49627;BME280;35527;54.616;39.786;2022-12-24T09:37:46;99296.34;;;2.35;100.00
49627;BME280;35527;54.616;39.786;2022-12-24T09:40:50;99301.44;;;2.35;100.00
49627;BME280;35527;54.616;39.786;2022-12-24T09:43:59;99282.72;;;2.33;100.00
49627;BME280;35527;54.616;39.786;2022-12-24T09:47:11;99285.28;;;2.33;100.00
49627;BME280;35527;54.616;39.786;2022-12-24T09:50:41;99283.63;;;2.30;100.00
49627;BME280;35527;54.616;39.786;2022-12-24T09:53:59;99274.28;;;2.29;100.00
49627;BME280;35527;54.616;39.786;2022-12-24T09:57:11;99282.75;;;2.31;100.00
49627;BME280;35527;54.616;39.786;2022-12-24T10:00:23;99258.97;;;2.26;100.00
49627;BME280;35527;54.616;39.786;2022-12-24T10:03:57;99278.59;;;2.22;100.00
49627;BME280;35527;54.616;39.786;2022-12-24T10:07:29;99291.41;;;2.19;100.00
49627;BME280;35527;54.616;39.786;2022-12-24T10:10:43;99286.31;;;2.19;100.00
49627;BME280;35527;54.616;39.786;2022-12-24T10:14:50;99273.47;;;2.25;100.00
49627;BME280;35527;54.616;39.786;2022-12-24T10:21:06;99280.19;;;2.33;100.00
49627;BME280;35527;54.616;39.786;2022-12-24T10:27:28;99270.06;;;2.25;100.00
49627;BME280;35527;54.616;39.786;2022-12-24T10:30:36;99261.56;;;2.23;100.00
49627;BME280;35527;54.616;39.786;2022-12-24T10:33:44;99276.84;;;2.26;100.00
49627;BME280;35527;54.616;39.786;2022-12-24T10:36:51;99251.47;;;2.17;100.00
49627;BME280;35527;54.616;39.786;2022-12-24T10:44:01;99254.66;;;2.31;100.00
49627;BME280;35527;54.616;39.786;2022-12-24T10:47:08;99264.94;;;2.27;100.00
49627;BME280;35527;54.616;39.786;2022-12-24T10:50:31;99257.44;;;2.14;100.00
49627;BME280;35527;54.616;39.786;2022-12-24T10:54:10;99279.41;;;2.26;100.00
49627;BME280;35527;54.616;39.786;2022-12-24T10:57:24;99244.72;;;2.11;100.00
49627;BME280;35527;54.616;39.786;2022-12-24T11:00:28;99255.59;;;2.25;100.00
49627;BME280;35527;54.616;39.786;2022-12-24T11:03:35;99259.34;;;2.00;100.00
49627;BME280;35527;54.616;39.786;2022-12-24T11:07:04;99258.28;;;2.18;100.00
49627;BME280;35527;54.616;39.786;2022-12-24T11:10:07;99265.31;;;1.97;100.00
49627;BME280;35527;54.616;39.786;2022-12-24T11:13:29;99258.50;;;1.99;100.00
49627;BME280;35527;54.616;39.786;2022-12-24T11:16:54;99257.19;;;2.33;100.00
49627;BME280;35527;54.616;39.786;2022-12-24T11:19:57;99263.44;;;2.13;100.00
49627;BME280;35527;54.616;39.786;2022-12-24T11:23:01;99279.63;;;2.12;100.00
49627;BME280;35527;54.616;39.786;2022-12-24T11:26:07;99292.41;;;2.09;100.00
49627;BME280;35527;54.616;39.786;2022-12-24T11:29:19;99274.56;;;2.09;100.00
49627;BME280;35527;54.616;39.786;2022-12-24T11:32:24;99263.47;;;2.10;100.00
49627;BME280;35527;54.616;39.786;2022-12-24T11:35:30;99251.69;;;2.00;100.00
49627;BME280;35527;54.616;39.786;2022-12-24T11:38:34;99265.38;;;1.96;100.00
49627;BME280;35527;54.616;39.786;2022-12-24T11:41:41;99283.13;;;2.03;100.00
49627;BME280;35527;54.616;39.786;2022-12-24T11:44:48;99261.09;;;1.98;100.00
49627;BME280;35527;54.616;39.786;2022-12-24T11:47:52;99287.34;;;2.06;100.00
49627;BME280;35527;54.616;39.786;2022-12-24T11:51:25;99299.22;;;2.09;100.00
49627;BME280;35527;54.616;39.786;2022-12-24T11:54:30;99285.66;;;2.07;100.00
49627;BME280;35527;54.616;39.786;2022-12-24T11:57:59;99281.47;;;2.01;100.00
49627;BME280;35527;54.616;39.786;2022-12-24T12:04:41;99300.28;;;1.91;100.00
49627;BME280;35527;54.616;39.786;2022-12-24T12:07:50;99287.56;;;1.88;100.00
49627;BME280;35527;54.616;39.786;2022-12-24T12:10:56;99282.44;;;1.91;100.00
49627;BME280;35527;54.616;39.786;2022-12-24T12:14:02;99273.91;;;1.95;100.00
49627;BME280;35527;54.616;39.786;2022-12-24T12:20:21;99295.09;;;1.98;100.00
49627;BME280;35527;54.616;39.786;2022-12-24T12:23:32;99284.06;;;1.98;100.00
49627;BME280;35527;54.616;39.786;2022-12-24T12:26:40;99311.09;;;2.11;100.00
49627;BME280;35527;54.616;39.786;2022-12-24T12:29:53;99306.09;;;2.02;100.00
49627;BME280;35527;54.616;39.786;2022-12-24T12:33:12;99302.72;;;2.00;100.00
49627;BME280;35527;54.616;39.786;2022-12-24T12:36:19;99316.28;;;2.07;100.00
49627;BME280;35527;54.616;39.786;2022-12-24T12:39:24;99295.81;;;2.10;100.00
49627;BME280;35527;54.616;39.786;2022-12-24T12:42:36;99314.47;;;2.12;100.00
49627;BME280;35527;54.616;39.786;2022-12-24T12:45:54;99292.44;;;2.08;100.00
49627;BME280;35527;54.616;39.786;2022-12-24T13:15:59;99336.00;;;1.91;100.00
49627;BME280;35527;54.616;39.786;2022-12-24T13:19:21;99313.09;;;1.88;100.00
49627;BME280;35527;54.616;39.786;2022-12-24T13:22:26;99329.31;;;1.82;100.00
49627;BME280;35527;54.616;39.786;2022-12-24T13:28:40;99325.88;;;1.85;100.00
49627;BME280;35527;54.616;39.786;2022-12-24T13:31:45;99323.41;;;1.78;100.00
49627;BME280;35527;54.616;39.786;2022-12-24T13:35:03;99349.72;;;1.82;100.00
49627;BME280;35527;54.616;39.786;2022-12-24T13:44:41;99327.78;;;1.66;100.00
49627;BME280;35527;54.616;39.786;2022-12-24T13:47:46;99364.28;;;1.71;100.00
49627;BME280;35527;54.616;39.786;2022-12-24T13:50:53;99332.88;;;1.66;100.00
49627;BME280;35527;54.616;39.786;2022-12-24T13:54:02;99332.88;;;1.66;100.00
49627;BME280;35527;54.616;39.786;2022-12-24T14:00:40;99355.84;;;1.67;100.00
49627;BME280;35527;54.616;39.786;2022-12-24T14:03:58;99340.56;;;1.63;100.00
49627;BME280;35527;54.616;39.786;2022-12-24T14:07:06;99356.66;;;1.72;100.00
49627;BME280;35527;54.616;39.786;2022-12-24T14:10:45;99347.25;;;1.77;100.00
49627;BME280;35527;54.616;39.786;2022-12-24T14:17:26;99365.13;;;1.71;100.00
49627;BME280;35527;54.616;39.786;2022-12-24T14:20:31;99344.78;;;1.67;100.00
49627;BME280;35527;54.616;39.786;2022-12-24T14:23:56;99366.88;;;1.69;100.00
49627;BME280;35527;54.616;39.786;2022-12-24T14:27:19;99386.41;;;1.69;100.00
49627;BME280;35527;54.616;39.786;2022-12-24T14:30:29;99370.28;;;1.68;100.00
49627;BME280;35527;54.616;39.786;2022-12-24T14:33:34;99337.25;;;1.57;100.00
49627;BME280;35527;54.616;39.786;2022-12-24T14:36:37;99341.41;;;1.65;100.00
49627;BME280;35527;54.616;39.786;2022-12-24T14:39:47;99343.13;;;1.64;100.00
49627;BME280;35527;54.616;39.786;2022-12-24T14:46:56;99362.63;;;1.70;100.00
49627;BME280;35527;54.616;39.786;2022-12-24T14:57:25;99357.09;;;2.05;100.00
49627;BME280;35527;54.616;39.786;2022-12-24T15:00:28;99344.44;;;2.00;100.00
49627;BME280;35527;54.616;39.786;2022-12-24T15:07:11;99357.19;;;1.97;100.00
49627;BME280;35527;54.616;39.786;2022-12-24T15:10:23;99346.19;;;1.95;100.00
49627;BME280;35527;54.616;39.786;2022-12-24T15:13:37;99345.38;;;1.89;100.00
49627;BME280;35527;54.616;39.786;2022-12-24T15:16:51;99341.91;;;1.94;100.00
49627;BME280;35527;54.616;39.786;2022-12-24T15:19:55;99350.44;;;1.93;100.00
49627;BME280;35527;54.616;39.786;2022-12-24T15:22:59;99349.72;;;1.84;100.00
49627;BME280;35527;54.616;39.786;2022-12-24T15:29:24;99377.66;;;1.94;100.00
49627;BME280;35527;54.616;39.786;2022-12-24T15:32:27;99367.44;;;1.96;100.00
49627;BME280;35527;54.616;39.786;2022-12-24T15:38:54;99370.91;;;1.92;100.00
49627;BME280;35527;54.616;39.786;2022-12-24T15:41:59;99374.25;;;1.95;100.00
49627;BME280;35527;54.616;39.786;2022-12-24T15:45:16;99384.47;;;1.95;100.00
49627;BME280;35527;54.616;39.786;2022-12-24T15:48:28;99373.44;;;1.90;100.00
49627;BME280;35527;54.616;39.786;2022-12-24T15:51:35;99386.13;;;1.96;100.00
49627;BME280;35527;54.616;39.786;2022-12-24T15:54:47;99395.38;;;2.07;100.00
49627;BME280;35527;54.616;39.786;2022-12-24T15:57:54;99392.88;;;2.02;100.00
49627;BME280;35527;54.616;39.786;2022-12-24T16:04:27;99402.38;;;1.89;100.00
49627;BME280;35527;54.616;39.786;2022-12-24T16:07:34;99396.38;;;1.93;100.00
49627;BME280;35527;54.616;39.786;2022-12-24T16:14:18;99408.81;;;2.24;100.00
49627;BME280;35527;54.616;39.786;2022-12-24T16:17:25;99400.19;;;2.33;100.00
49627;BME280;35527;54.616;39.786;2022-12-24T16:20:30;99394.03;;;2.49;100.00
49627;BME280;35527;54.616;39.786;2022-12-24T16:23:47;99403.41;;;2.45;100.00
49627;BME280;35527;54.616;39.786;2022-12-24T16:26:52;99394.25;;;2.31;100.00
49627;BME280;35527;54.616;39.786;2022-12-24T16:29:55;99392.41;;;2.40;100.00
49627;BME280;35527;54.616;39.786;2022-12-24T16:33:00;99408.47;;;2.50;100.00
49627;BME280;35527;54.616;39.786;2022-12-24T16:36:07;99416.16;;;2.48;100.00
49627;BME280;35527;54.616;39.786;2022-12-24T16:39:26;99393.56;;;2.16;100.00
49627;BME280;35527;54.616;39.786;2022-12-24T16:42:32;99391.19;;;1.99;100.00
49627;BME280;35527;54.616;39.786;2022-12-24T16:46:02;99397.94;;;2.05;100.00
49627;BME280;35527;54.616;39.786;2022-12-24T16:49:16;99400.47;;;2.08;100.00
49627;BME280;35527;54.616;39.786;2022-12-24T16:52:22;99409.91;;;2.00;100.00
49627;BME280;35527;54.616;39.786;2022-12-24T16:55:26;99401.47;;;1.93;100.00
49627;BME280;35527;54.616;39.786;2022-12-24T16:58:36;99404.03;;;1.95;100.00
49627;BME280;35527;54.616;39.786;2022-12-24T17:01:41;99411.66;;;1.98;100.00
49627;BME280;35527;54.616;39.786;2022-12-24T17:05:09;99407.41;;;1.95;100.00
49627;BME280;35527;54.616;39.786;2022-12-24T17:08:12;99412.56;;;1.92;100.00
49627;BME280;35527;54.616;39.786;2022-12-24T17:11:22;99415.94;;;1.93;100.00
49627;BME280;35527;54.616;39.786;2022-12-24T17:14:29;99410.03;;;1.88;100.00
49627;BME280;35527;54.616;39.786;2022-12-24T17:17:33;99399.91;;;1.80;100.00
49627;BME280;35527;54.616;39.786;2022-12-24T17:20:35;99415.94;;;1.91;100.00
49627;BME280;35527;54.616;39.786;2022-12-24T17:23:41;99407.47;;;1.91;100.00
49627;BME280;35527;54.616;39.786;2022-12-24T17:26:45;99410.81;;;1.96;100.00
49627;BME280;35527;54.616;39.786;2022-12-24T17:29:49;99416.00;;;1.88;100.00
49627;BME280;35527;54.616;39.786;2022-12-24T17:32:53;99415.19;;;1.85;100.00
49627;BME280;35527;54.616;39.786;2022-12-24T17:35:57;99417.78;;;1.77;100.00
49627;BME280;35527;54.616;39.786;2022-12-24T17:39:01;99420.28;;;1.83;100.00
49627;BME280;35527;54.616;39.786;2022-12-24T17:42:05;99420.34;;;1.77;100.00
49627;BME280;35527;54.616;39.786;2022-12-24T17:45:10;99418.75;;;1.65;100.00
49627;BME280;35527;54.616;39.786;2022-12-24T17:48:15;99416.22;;;1.67;100.00
49627;BME280;35527;54.616;39.786;2022-12-24T17:51:21;99435.59;;;1.83;100.00
49627;BME280;35527;54.616;39.786;2022-12-24T17:54:27;99438.09;;;1.89;100.00
49627;BME280;35527;54.616;39.786;2022-12-24T17:57:29;99425.44;;;1.78;100.00
49627;BME280;35527;54.616;39.786;2022-12-24T18:00:33;99443.16;;;1.95;100.00
49627;BME280;35527;54.616;39.786;2022-12-24T18:03:37;99454.25;;;1.88;100.00
49627;BME280;35527;54.616;39.786;2022-12-24T18:06:41;99461.91;;;1.90;100.00
49627;BME280;35527;54.616;39.786;2022-12-24T18:09:50;99450.00;;;1.89;100.00
49627;BME280;35527;54.616;39.786;2022-12-24T18:12:54;99439.03;;;1.80;100.00
49627;BME280;35527;54.616;39.786;2022-12-24T18:15:58;99462.72;;;1.93;100.00
49627;BME280;35527;54.616;39.786;2022-12-24T18:19:03;99461.91;;;1.88;100.00
49627;BME280;35527;54.616;39.786;2022-12-24T18:22:06;99473.78;;;1.95;100.00
49627;BME280;35527;54.616;39.786;2022-12-24T18:25:09;99477.19;;;1.91;100.00